AirNav   TITAN Aviation Fuels
 
 365 users online  

MN35 Wild Rice Lake Seaplane Base
Duluth, Minnesota, USA

GOING TO DULUTH?


FAA INFORMATION EFFECTIVE 15 JULY 2021

Location

FAA Identifier: MN35
Lat/Long: 46-53-59.7770N 092-09-43.6770W
46-53.996283N 092-09.727950W
46.8999381,-92.1621325
(estimated)
Elevation: 1380 ft. / 421 m (estimated)
Variation: 02E (1985)
From city: 9 miles NW of DULUTH, MN
Time zone: UTC -5 (UTC -6 during Standard Time)
Zip code: 55803

Seaplane Base Operations

Seaplane Base use: Private use. Permission required prior to landing
Activation date: 01/1962
Control tower: no
ARTCC: MINNEAPOLIS CENTER
FSS: PRINCETON FLIGHT SERVICE STATION
Attendance: MAY-OCT 0800-2000
Wind indicator: no
Segmented circle: no

Seaplane Base Communications

WX ASOS at DLH (4 nm S): PHONE 218-740-5977
WX AWOS-3 at DYT (12 nm SE): 119.275 (218-720-4886)
WX AWOS-3 at SUW (13 nm S): 120.35 (715-394-0283)
WX AWOS-3 at COQ (18 nm SW): 118.525 (218-879-0783)
WX AWOS-3 at TWM (19 nm NE): 119.325 (218-834-6591)

Nearby radio navigation aids

VOR radial/distance  VOR name  Freq  Var
DLHr011/6.1DULUTH VORTAC112.6005E
HIBr135/32.7HIBBING VOR/DME110.8002E

 
NDB name  Hdg/Dist  Freq  Var  ID
PYKLA068/8.637900EDL -.. .-..

Seaplane Base Services

Fuel available: 80
Airframe service: NONE
Powerplant service: NONE

Runway Information

Runway ALL/WAY

Dimensions: 6000 x 6000 ft. / 1829 x 1829 m
Surface: water
RUNWAY ALL  RUNWAY WAY
Traffic pattern: leftleft

Seaplane Base Ownership and Management from official FAA records

Ownership: Privately-owned
Owner: DR. MARVIN G. WICK
4565 MILLER ROAD
DULUTH, MN 55803
Phone 218-348-3591
Manager: 724-6868 OFFICE.

Seaplane Base Operational Statistics

Aircraft based on the field: 6
Single engine airplanes: 6
    

Additional Remarks

FOR CD CTC MINNEAPOLIS ARTCC AT 651-463-5588.

Instrument Procedures

There are no published instrument procedures at MN35.

Some nearby airports with instrument procedures:

KDLH - Duluth International Airport (4 nm S)
KSUW - Richard I Bong Airport (13 nm S)
KCOQ - Cloquet/Carlton County Airport (18 nm SW)
KTWM - Richard B Helgeson Airport (19 nm NE)
KEVM - Eveleth-Virginia Municipal Airport (34 nm NW)
 
Loc | Ops | Rwys | IFR | FBO | Links
Com | Nav | Svcs | Stats | Notes
Area around MN35 (Wild Rice Lake Seaplane Base)
 
Road maps at: MapQuest Bing Google
 
Aerial photo
No photo
 
Sectional chart

 
Airport distance calculator
Flying to Wild Rice Lake Seaplane Base? Find the distance to fly.

From to MN35

Sunrise and sunset
Times for 29-Jul-2021
 Local
(UTC-5)
 Zulu
(UTC)
Morning civil twilight05:1010:10
Sunrise05:4610:46
Sunset20:4401:44
Evening civil twilight21:2002:20

Current date and time
Zulu (UTC)  29-Jul-2021 07:20:27
Local (UTC-5)  29-Jul-2021 02:20:27
 
METAR
KDLH 
3nm SW 
290655Z 34006KT 6SM BR FEW002 FEW006 19/18 A2992 RMK AO2 SLP130 T01890178
KDYT 
12nm SE 
290655Z AUTO 23003KT 7SM CLR 20/18 A2990 RMK AO2
KCOQ 
18nm SW 
290655Z AUTO 31004KT 5SM BR CLR 17/17 A2991 RMK AO2 TSNO
KTWM 
19nm NE 
290655Z AUTO 00000KT 7SM CLR 18/16 A2989 RMK AO2 PWINO
TAF
KDLH 
3nm SW 
290540Z 2906/3006 34005KT 6SM BR FEW150 TEMPO 2908/2911 3SM BR FM291300 34008KT P6SM SKC FM291800 35010G17KT P6SM FEW060 FM300100 05005KT P6SM FEW200
NOTAMs
Click for the latest NOTAMs
NOTAMs are issued by the DoD/FAA and will open in a separate window not controlled by AirNav.

 

 
 

Would you like to see your business listed on this page?

 If your business provides an interesting product or service to pilots, flight crews, aircraft, or users of the Wild Rice Lake Seaplane Base, you should consider listing it here.  To start the listing process, click on the button below
 
Add a business
 

Other Pages about Wild Rice Lake Seaplane Base

Update a link
 
Copyright © AirNav, LLC. All rights reserved. Privacy Policy  Contact